sensor_id;sensor_type;location;lat;lon;timestamp;temperature;humidity
45619;DHT22;31343;47.520;19.144;2023-08-21T00:00:57;23.70;99.90
45619;DHT22;31343;47.520;19.144;2023-08-21T00:03:23;23.60;99.90
45619;DHT22;31343;47.520;19.144;2023-08-21T00:05:49;23.60;99.90
45619;DHT22;31343;47.520;19.144;2023-08-21T00:08:14;23.50;99.90
45619;DHT22;31343;47.520;19.144;2023-08-21T00:10:40;23.50;99.90
45619;DHT22;31343;47.520;19.144;2023-08-21T00:13:06;23.50;99.90
45619;DHT22;31343;47.520;19.144;2023-08-21T00:15:32;23.50;99.90
45619;DHT22;31343;47.520;19.144;2023-08-21T00:17:58;23.60;99.90
45619;DHT22;31343;47.520;19.144;2023-08-21T00:20:24;23.60;99.90
45619;DHT22;31343;47.520;19.144;2023-08-21T00:22:49;23.50;99.90
45619;DHT22;31343;47.520;19.144;2023-08-21T00:25:15;23.60;99.90
45619;DHT22;31343;47.520;19.144;2023-08-21T00:27:41;23.50;99.90
45619;DHT22;31343;47.520;19.144;2023-08-21T00:30:07;23.40;99.90
45619;DHT22;31343;47.520;19.144;2023-08-21T00:32:33;23.30;99.90
45619;DHT22;31343;47.520;19.144;2023-08-21T00:34:59;23.30;99.90
45619;DHT22;31343;47.520;19.144;2023-08-21T00:37:24;23.30;99.90
45619;DHT22;31343;47.520;19.144;2023-08-21T00:39:50;23.30;99.90
45619;DHT22;31343;47.520;19.144;2023-08-21T00:42:16;23.30;99.90
45619;DHT22;31343;47.520;19.144;2023-08-21T00:44:41;23.30;99.90
45619;DHT22;31343;47.520;19.144;2023-08-21T00:47:07;23.30;99.90
45619;DHT22;31343;47.520;19.144;2023-08-21T00:49:33;23.30;99.90
45619;DHT22;31343;47.520;19.144;2023-08-21T00:52:00;23.20;99.90
45619;DHT22;31343;47.520;19.144;2023-08-21T00:54:26;23.30;99.90
45619;DHT22;31343;47.520;19.144;2023-08-21T00:56:52;23.20;99.90
45619;DHT22;31343;47.520;19.144;2023-08-21T00:59:19;23.30;99.90
45619;DHT22;31343;47.520;19.144;2023-08-21T01:01:45;23.30;99.90
45619;DHT22;31343;47.520;19.144;2023-08-21T01:04:11;23.30;99.90
45619;DHT22;31343;47.520;19.144;2023-08-21T01:06:37;23.20;99.90
45619;DHT22;31343;47.520;19.144;2023-08-21T01:09:27;23.30;99.90
45619;DHT22;31343;47.520;19.144;2023-08-21T01:17:16;23.10;99.90
45619;DHT22;31343;47.520;19.144;2023-08-21T01:19:47;23.10;99.90
45619;DHT22;31343;47.520;19.144;2023-08-21T01:22:13;23.10;99.90
45619;DHT22;31343;47.520;19.144;2023-08-21T01:24:40;23.00;99.90
45619;DHT22;31343;47.520;19.144;2023-08-21T01:27:05;23.00;99.90
45619;DHT22;31343;47.520;19.144;2023-08-21T01:29:32;23.00;99.90
45619;DHT22;31343;47.520;19.144;2023-08-21T01:34:51;23.00;99.90
45619;DHT22;31343;47.520;19.144;2023-08-21T01:37:20;22.90;99.90
45619;DHT22;31343;47.520;19.144;2023-08-21T01:39:46;22.70;99.90
45619;DHT22;31343;47.520;19.144;2023-08-21T01:42:12;22.70;99.90
45619;DHT22;31343;47.520;19.144;2023-08-21T01:44:38;22.70;99.90
45619;DHT22;31343;47.520;19.144;2023-08-21T01:47:03;22.80;99.90
45619;DHT22;31343;47.520;19.144;2023-08-21T01:49:29;22.90;99.90
45619;DHT22;31343;47.520;19.144;2023-08-21T01:51:55;22.80;99.90
45619;DHT22;31343;47.520;19.144;2023-08-21T01:54:21;22.80;99.90
45619;DHT22;31343;47.520;19.144;2023-08-21T01:56:46;22.80;99.90
45619;DHT22;31343;47.520;19.144;2023-08-21T01:59:12;22.70;99.90
45619;DHT22;31343;47.520;19.144;2023-08-21T02:01:38;22.70;99.90
45619;DHT22;31343;47.520;19.144;2023-08-21T02:04:03;22.70;99.90
45619;DHT22;31343;47.520;19.144;2023-08-21T02:06:29;22.60;99.90
45619;DHT22;31343;47.520;19.144;2023-08-21T02:08:55;22.70;99.90
45619;DHT22;31343;47.520;19.144;2023-08-21T02:11:22;22.80;99.90
45619;DHT22;31343;47.520;19.144;2023-08-21T02:13:47;22.70;99.90
45619;DHT22;31343;47.520;19.144;2023-08-21T02:16:13;22.70;99.90
45619;DHT22;31343;47.520;19.144;2023-08-21T02:18:39;22.70;99.90
45619;DHT22;31343;47.520;19.144;2023-08-21T02:21:05;22.70;99.90
45619;DHT22;31343;47.520;19.144;2023-08-21T02:23:31;22.70;99.90
45619;DHT22;31343;47.520;19.144;2023-08-21T02:25:56;22.70;99.90
45619;DHT22;31343;47.520;19.144;2023-08-21T02:28:22;22.70;99.90
45619;DHT22;31343;47.520;19.144;2023-08-21T02:30:48;22.70;99.90
45619;DHT22;31343;47.520;19.144;2023-08-21T02:33:14;22.70;99.90
45619;DHT22;31343;47.520;19.144;2023-08-21T02:35:39;22.70;99.90
45619;DHT22;31343;47.520;19.144;2023-08-21T02:38:05;22.70;99.90
45619;DHT22;31343;47.520;19.144;2023-08-21T02:40:31;22.70;99.90
45619;DHT22;31343;47.520;19.144;2023-08-21T02:42:57;22.70;99.90
45619;DHT22;31343;47.520;19.144;2023-08-21T02:45:23;22.60;99.90
45619;DHT22;31343;47.520;19.144;2023-08-21T02:47:49;22.60;99.90
45619;DHT22;31343;47.520;19.144;2023-08-21T02:50:14;22.60;99.90
45619;DHT22;31343;47.520;19.144;2023-08-21T02:52:40;22.60;99.90
45619;DHT22;31343;47.520;19.144;2023-08-21T02:55:06;22.60;99.90
45619;DHT22;31343;47.520;19.144;2023-08-21T02:57:32;22.60;99.90
45619;DHT22;31343;47.520;19.144;2023-08-21T02:59:57;22.50;99.90
45619;DHT22;31343;47.520;19.144;2023-08-21T03:02:23;22.60;99.90
45619;DHT22;31343;47.520;19.144;2023-08-21T03:04:49;22.50;99.90
45619;DHT22;31343;47.520;19.144;2023-08-21T03:07:15;22.50;99.90
45619;DHT22;31343;47.520;19.144;2023-08-21T03:09:41;22.60;99.90
45619;DHT22;31343;47.520;19.144;2023-08-21T03:12:08;22.50;99.90
45619;DHT22;31343;47.520;19.144;2023-08-21T03:14:34;22.60;99.90
45619;DHT22;31343;47.520;19.144;2023-08-21T03:17:00;22.50;99.90
45619;DHT22;31343;47.520;19.144;2023-08-21T03:19:26;22.40;99.90
45619;DHT22;31343;47.520;19.144;2023-08-21T03:21:51;22.40;99.90
45619;DHT22;31343;47.520;19.144;2023-08-21T03:24:17;22.40;99.90
45619;DHT22;31343;47.520;19.144;2023-08-21T03:26:43;22.50;99.90
45619;DHT22;31343;47.520;19.144;2023-08-21T03:29:09;22.50;99.90
45619;DHT22;31343;47.520;19.144;2023-08-21T03:31:35;22.50;99.90
45619;DHT22;31343;47.520;19.144;2023-08-21T03:34:00;22.50;99.90
45619;DHT22;31343;47.520;19.144;2023-08-21T03:36:26;22.40;99.90
45619;DHT22;31343;47.520;19.144;2023-08-21T03:38:58;22.40;99.90
45619;DHT22;31343;47.520;19.144;2023-08-21T03:41:24;22.40;99.90
45619;DHT22;31343;47.520;19.144;2023-08-21T03:43:50;22.30;99.90
45619;DHT22;31343;47.520;19.144;2023-08-21T03:46:16;22.30;99.90
45619;DHT22;31343;47.520;19.144;2023-08-21T03:48:42;22.40;99.90
45619;DHT22;31343;47.520;19.144;2023-08-21T03:51:07;22.40;99.90
45619;DHT22;31343;47.520;19.144;2023-08-21T03:53:33;22.30;99.90
45619;DHT22;31343;47.520;19.144;2023-08-21T03:55:59;22.40;99.90
45619;DHT22;31343;47.520;19.144;2023-08-21T03:58:25;22.40;99.90
45619;DHT22;31343;47.520;19.144;2023-08-21T04:00:53;22.40;99.90
45619;DHT22;31343;47.520;19.144;2023-08-21T04:03:19;22.40;99.90
45619;DHT22;31343;47.520;19.144;2023-08-21T04:05:45;22.40;99.90
45619;DHT22;31343;47.520;19.144;2023-08-21T04:08:11;22.40;99.90
45619;DHT22;31343;47.520;19.144;2023-08-21T04:10:36;22.40;99.90
45619;DHT22;31343;47.520;19.144;2023-08-21T04:13:04;22.40;99.90
45619;DHT22;31343;47.520;19.144;2023-08-21T04:15:30;22.40;99.90
45619;DHT22;31343;47.520;19.144;2023-08-21T04:17:56;22.50;99.90
45619;DHT22;31343;47.520;19.144;2023-08-21T04:20:22;22.50;99.90
45619;DHT22;31343;47.520;19.144;2023-08-21T04:22:49;22.50;99.90
45619;DHT22;31343;47.520;19.144;2023-08-21T04:25:15;22.50;99.90
45619;DHT22;31343;47.520;19.144;2023-08-21T04:27:41;22.50;99.90
45619;DHT22;31343;47.520;19.144;2023-08-21T04:30:08;22.60;99.90
45619;DHT22;31343;47.520;19.144;2023-08-21T04:32:34;22.50;99.90
45619;DHT22;31343;47.520;19.144;2023-08-21T04:35:00;22.60;99.90
45619;DHT22;31343;47.520;19.144;2023-08-21T04:37:25;22.70;99.90
45619;DHT22;31343;47.520;19.144;2023-08-21T04:39:53;22.80;99.90
45619;DHT22;31343;47.520;19.144;2023-08-21T04:42:19;22.90;99.90
45619;DHT22;31343;47.520;19.144;2023-08-21T04:44:45;23.00;99.90
45619;DHT22;31343;47.520;19.144;2023-08-21T04:47:23;23.10;99.90
45619;DHT22;31343;47.520;19.144;2023-08-21T04:49:50;23.20;99.90
45619;DHT22;31343;47.520;19.144;2023-08-21T04:52:16;23.40;99.90
45619;DHT22;31343;47.520;19.144;2023-08-21T04:54:42;23.60;99.90
45619;DHT22;31343;47.520;19.144;2023-08-21T04:57:07;23.80;99.90
45619;DHT22;31343;47.520;19.144;2023-08-21T04:59:35;24.20;99.90
45619;DHT22;31343;47.520;19.144;2023-08-21T05:02:01;24.90;99.90
45619;DHT22;31343;47.520;19.144;2023-08-21T05:04:27;25.70;99.90
45619;DHT22;31343;47.520;19.144;2023-08-21T05:06:52;26.20;99.90
45619;DHT22;31343;47.520;19.144;2023-08-21T05:09:18;27.20;99.90
45619;DHT22;31343;47.520;19.144;2023-08-21T05:11:44;28.00;99.90
45619;DHT22;31343;47.520;19.144;2023-08-21T05:14:10;28.40;99.90
45619;DHT22;31343;47.520;19.144;2023-08-21T05:16:35;28.80;99.90
45619;DHT22;31343;47.520;19.144;2023-08-21T05:19:01;29.60;99.90
45619;DHT22;31343;47.520;19.144;2023-08-21T05:21:27;30.10;99.90
45619;DHT22;31343;47.520;19.144;2023-08-21T05:23:53;30.30;99.90
45619;DHT22;31343;47.520;19.144;2023-08-21T05:26:19;30.70;99.90
45619;DHT22;31343;47.520;19.144;2023-08-21T05:28:45;31.40;99.90
45619;DHT22;31343;47.520;19.144;2023-08-21T05:31:11;31.50;99.90
45619;DHT22;31343;47.520;19.144;2023-08-21T05:33:37;32.10;99.90
45619;DHT22;31343;47.520;19.144;2023-08-21T05:36:03;32.20;99.40
45619;DHT22;31343;47.520;19.144;2023-08-21T05:38:28;32.40;99.00
45619;DHT22;31343;47.520;19.144;2023-08-21T05:40:54;32.80;98.30
45619;DHT22;31343;47.520;19.144;2023-08-21T05:43:20;32.90;98.00
45619;DHT22;31343;47.520;19.144;2023-08-21T05:45:45;32.90;97.70
45619;DHT22;31343;47.520;19.144;2023-08-21T05:48:11;33.40;96.90
45619;DHT22;31343;47.520;19.144;2023-08-21T05:50:37;33.50;96.30
45619;DHT22;31343;47.520;19.144;2023-08-21T05:53:04;33.70;96.30
45619;DHT22;31343;47.520;19.144;2023-08-21T05:55:30;34.00;95.90
45619;DHT22;31343;47.520;19.144;2023-08-21T05:57:55;34.50;95.50
45619;DHT22;31343;47.520;19.144;2023-08-21T06:00:21;34.70;94.80
45619;DHT22;31343;47.520;19.144;2023-08-21T06:02:47;35.00;94.30
45619;DHT22;31343;47.520;19.144;2023-08-21T06:05:12;35.10;93.90
45619;DHT22;31343;47.520;19.144;2023-08-21T06:07:38;35.20;93.50
45619;DHT22;31343;47.520;19.144;2023-08-21T06:10:09;35.50;93.20
45619;DHT22;31343;47.520;19.144;2023-08-21T06:12:41;35.50;93.10
45619;DHT22;31343;47.520;19.144;2023-08-21T06:15:08;35.80;93.00
45619;DHT22;31343;47.520;19.144;2023-08-21T06:17:37;35.60;92.40
45619;DHT22;31343;47.520;19.144;2023-08-21T06:20:04;35.30;92.40
45619;DHT22;31343;47.520;19.144;2023-08-21T06:22:35;35.40;92.00
45619;DHT22;31343;47.520;19.144;2023-08-21T06:25:01;36.00;92.20
45619;DHT22;31343;47.520;19.144;2023-08-21T06:27:27;36.80;91.30
45619;DHT22;31343;47.520;19.144;2023-08-21T06:29:52;37.20;90.50
45619;DHT22;31343;47.520;19.144;2023-08-21T06:32:18;37.70;90.10
45619;DHT22;31343;47.520;19.144;2023-08-21T06:34:44;38.20;88.80
45619;DHT22;31343;47.520;19.144;2023-08-21T06:37:09;38.40;88.50
45619;DHT22;31343;47.520;19.144;2023-08-21T06:39:35;38.20;87.20
45619;DHT22;31343;47.520;19.144;2023-08-21T06:42:01;38.60;86.40
45619;DHT22;31343;47.520;19.144;2023-08-21T06:44:27;38.10;86.60
45619;DHT22;31343;47.520;19.144;2023-08-21T06:46:53;38.00;85.90
45619;DHT22;31343;47.520;19.144;2023-08-21T06:49:19;37.40;86.20
45619;DHT22;31343;47.520;19.144;2023-08-21T06:51:45;38.50;86.30
45619;DHT22;31343;47.520;19.144;2023-08-21T06:54:11;38.40;85.00
45619;DHT22;31343;47.520;19.144;2023-08-21T06:56:37;38.60;84.70
45619;DHT22;31343;47.520;19.144;2023-08-21T06:59:02;39.50;83.70
45619;DHT22;31343;47.520;19.144;2023-08-21T07:01:29;39.40;82.60
45619;DHT22;31343;47.520;19.144;2023-08-21T07:03:54;39.40;81.60
45619;DHT22;31343;47.520;19.144;2023-08-21T07:06:20;39.20;81.70
45619;DHT22;31343;47.520;19.144;2023-08-21T07:08:46;39.40;81.60
45619;DHT22;31343;47.520;19.144;2023-08-21T07:11:12;40.00;80.30
45619;DHT22;31343;47.520;19.144;2023-08-21T07:13:38;40.30;78.50
45619;DHT22;31343;47.520;19.144;2023-08-21T07:16:04;40.60;77.40
45619;DHT22;31343;47.520;19.144;2023-08-21T07:18:35;40.90;76.10
45619;DHT22;31343;47.520;19.144;2023-08-21T07:21:01;40.70;76.20
45619;DHT22;31343;47.520;19.144;2023-08-21T07:23:29;40.10;78.30
45619;DHT22;31343;47.520;19.144;2023-08-21T07:25:54;40.40;77.20
45619;DHT22;31343;47.520;19.144;2023-08-21T07:28:20;40.80;77.70
45619;DHT22;31343;47.520;19.144;2023-08-21T07:30:46;41.20;76.00
45619;DHT22;31343;47.520;19.144;2023-08-21T07:33:12;41.10;73.60
45619;DHT22;31343;47.520;19.144;2023-08-21T07:35:37;39.90;73.80
45619;DHT22;31343;47.520;19.144;2023-08-21T07:38:03;39.50;74.60
45619;DHT22;31343;47.520;19.144;2023-08-21T07:40:29;39.80;75.30
45619;DHT22;31343;47.520;19.144;2023-08-21T07:45:39;39.20;76.50
45619;DHT22;31343;47.520;19.144;2023-08-21T07:48:05;39.20;76.30
45619;DHT22;31343;47.520;19.144;2023-08-21T07:50:30;39.50;76.50
45619;DHT22;31343;47.520;19.144;2023-08-21T07:52:56;40.00;76.80
45619;DHT22;31343;47.520;19.144;2023-08-21T07:55:22;39.10;76.10
45619;DHT22;31343;47.520;19.144;2023-08-21T07:57:48;38.30;76.00
45619;DHT22;31343;47.520;19.144;2023-08-21T08:00:14;38.50;76.70
45619;DHT22;31343;47.520;19.144;2023-08-21T08:02:40;38.60;77.30
45619;DHT22;31343;47.520;19.144;2023-08-21T08:05:06;37.60;78.80
45619;DHT22;31343;47.520;19.144;2023-08-21T08:07:32;37.50;78.90
45619;DHT22;31343;47.520;19.144;2023-08-21T08:09:57;37.50;79.80
45619;DHT22;31343;47.520;19.144;2023-08-21T08:12:23;37.90;80.50
45619;DHT22;31343;47.520;19.144;2023-08-21T08:14:50;37.80;80.60
45619;DHT22;31343;47.520;19.144;2023-08-21T08:17:15;37.60;81.00
45619;DHT22;31343;47.520;19.144;2023-08-21T08:19:41;37.70;81.20
45619;DHT22;31343;47.520;19.144;2023-08-21T08:22:07;37.30;80.60
45619;DHT22;31343;47.520;19.144;2023-08-21T08:24:32;37.00;81.50
45619;DHT22;31343;47.520;19.144;2023-08-21T08:26:58;36.80;81.90
45619;DHT22;31343;47.520;19.144;2023-08-21T08:29:24;36.20;82.80
45619;DHT22;31343;47.520;19.144;2023-08-21T08:31:49;35.70;83.80
45619;DHT22;31343;47.520;19.144;2023-08-21T08:34:15;35.80;84.90
45619;DHT22;31343;47.520;19.144;2023-08-21T08:36:45;35.80;87.30
45619;DHT22;31343;47.520;19.144;2023-08-21T08:39:11;35.60;86.60
45619;DHT22;31343;47.520;19.144;2023-08-21T08:41:58;35.60;87.90
45619;DHT22;31343;47.520;19.144;2023-08-21T08:44:29;35.70;87.70
45619;DHT22;31343;47.520;19.144;2023-08-21T08:46:56;35.70;85.40
45619;DHT22;31343;47.520;19.144;2023-08-21T08:49:22;35.60;86.30
45619;DHT22;31343;47.520;19.144;2023-08-21T08:51:50;35.50;85.10
45619;DHT22;31343;47.520;19.144;2023-08-21T08:54:17;35.40;85.80
45619;DHT22;31343;47.520;19.144;2023-08-21T08:56:44;35.30;85.80
45619;DHT22;31343;47.520;19.144;2023-08-21T08:59:10;34.90;86.60
45619;DHT22;31343;47.520;19.144;2023-08-21T09:01:36;34.50;87.70
45619;DHT22;31343;47.520;19.144;2023-08-21T09:04:03;34.40;87.30
45619;DHT22;31343;47.520;19.144;2023-08-21T09:06:29;34.30;88.70
45619;DHT22;31343;47.520;19.144;2023-08-21T09:08:56;34.60;88.10
45619;DHT22;31343;47.520;19.144;2023-08-21T09:11:22;34.00;86.80
45619;DHT22;31343;47.520;19.144;2023-08-21T09:13:52;34.10;87.20
45619;DHT22;31343;47.520;19.144;2023-08-21T09:16:19;34.20;87.60
45619;DHT22;31343;47.520;19.144;2023-08-21T09:18:48;34.00;86.70
45619;DHT22;31343;47.520;19.144;2023-08-21T09:21:18;33.90;88.00
45619;DHT22;31343;47.520;19.144;2023-08-21T09:23:44;34.20;90.50
45619;DHT22;31343;47.520;19.144;2023-08-21T09:26:21;34.40;88.50
45619;DHT22;31343;47.520;19.144;2023-08-21T09:28:48;34.40;88.30
45619;DHT22;31343;47.520;19.144;2023-08-21T09:31:14;34.60;87.70
45619;DHT22;31343;47.520;19.144;2023-08-21T09:33:40;34.60;83.90
45619;DHT22;31343;47.520;19.144;2023-08-21T09:36:06;34.60;83.60
45619;DHT22;31343;47.520;19.144;2023-08-21T09:38:34;34.80;85.50
45619;DHT22;31343;47.520;19.144;2023-08-21T09:41:00;34.70;83.80
45619;DHT22;31343;47.520;19.144;2023-08-21T09:43:26;34.30;85.10
45619;DHT22;31343;47.520;19.144;2023-08-21T09:45:53;34.30;86.40
45619;DHT22;31343;47.520;19.144;2023-08-21T09:48:27;34.40;85.20
45619;DHT22;31343;47.520;19.144;2023-08-21T09:50:53;34.40;85.00
45619;DHT22;31343;47.520;19.144;2023-08-21T09:53:22;34.30;84.30
45619;DHT22;31343;47.520;19.144;2023-08-21T09:55:53;34.20;84.60
45619;DHT22;31343;47.520;19.144;2023-08-21T09:58:19;34.20;83.20
45619;DHT22;31343;47.520;19.144;2023-08-21T10:00:45;34.10;84.00
45619;DHT22;31343;47.520;19.144;2023-08-21T10:03:20;34.30;82.20
45619;DHT22;31343;47.520;19.144;2023-08-21T10:05:47;34.00;84.20
45619;DHT22;31343;47.520;19.144;2023-08-21T10:08:16;34.00;87.40
45619;DHT22;31343;47.520;19.144;2023-08-21T10:10:43;33.90;84.50
45619;DHT22;31343;47.520;19.144;2023-08-21T10:13:10;33.70;85.50
45619;DHT22;31343;47.520;19.144;2023-08-21T10:15:37;33.70;85.60
45619;DHT22;31343;47.520;19.144;2023-08-21T10:18:24;33.90;88.20
45619;DHT22;31343;47.520;19.144;2023-08-21T10:20:51;33.70;84.90
45619;DHT22;31343;47.520;19.144;2023-08-21T10:23:30;33.80;86.60
45619;DHT22;31343;47.520;19.144;2023-08-21T10:25:58;33.70;83.60
45619;DHT22;31343;47.520;19.144;2023-08-21T10:28:24;33.80;86.20
45619;DHT22;31343;47.520;19.144;2023-08-21T10:30:50;33.80;83.70
45619;DHT22;31343;47.520;19.144;2023-08-21T10:33:17;33.70;84.60
45619;DHT22;31343;47.520;19.144;2023-08-21T10:35:45;33.60;84.60
45619;DHT22;31343;47.520;19.144;2023-08-21T10:38:14;33.80;87.90
45619;DHT22;31343;47.520;19.144;2023-08-21T10:41:08;34.10;85.70
45619;DHT22;31343;47.520;19.144;2023-08-21T10:43:46;34.30;84.40
45619;DHT22;31343;47.520;19.144;2023-08-21T10:46:12;34.40;84.00
45619;DHT22;31343;47.520;19.144;2023-08-21T10:48:39;34.70;86.10
45619;DHT22;31343;47.520;19.144;2023-08-21T10:51:08;34.90;83.50
45619;DHT22;31343;47.520;19.144;2023-08-21T10:53:38;35.10;83.10
45619;DHT22;31343;47.520;19.144;2023-08-21T10:56:06;35.20;81.80
45619;DHT22;31343;47.520;19.144;2023-08-21T10:58:41;35.10;82.10
45619;DHT22;31343;47.520;19.144;2023-08-21T11:01:07;35.00;81.00
45619;DHT22;31343;47.520;19.144;2023-08-21T11:03:33;35.00;82.20
45619;DHT22;31343;47.520;19.144;2023-08-21T11:06:04;35.50;81.60
45619;DHT22;31343;47.520;19.144;2023-08-21T11:08:31;35.90;81.20
45619;DHT22;31343;47.520;19.144;2023-08-21T11:10:57;36.30;80.30
45619;DHT22;31343;47.520;19.144;2023-08-21T11:13:24;36.60;81.00
45619;DHT22;31343;47.520;19.144;2023-08-21T11:15:58;37.00;78.30
45619;DHT22;31343;47.520;19.144;2023-08-21T11:18:36;37.80;77.00
45619;DHT22;31343;47.520;19.144;2023-08-21T11:21:09;38.10;76.00
45619;DHT22;31343;47.520;19.144;2023-08-21T11:23:37;39.10;74.50
45619;DHT22;31343;47.520;19.144;2023-08-21T11:26:04;39.90;73.30
45619;DHT22;31343;47.520;19.144;2023-08-21T11:28:31;40.00;74.60
45619;DHT22;31343;47.520;19.144;2023-08-21T11:30:57;40.90;72.10
45619;DHT22;31343;47.520;19.144;2023-08-21T11:33:23;41.40;72.10
45619;DHT22;31343;47.520;19.144;2023-08-21T11:35:49;41.30;71.10
45619;DHT22;31343;47.520;19.144;2023-08-21T11:38:21;41.50;70.50
45619;DHT22;31343;47.520;19.144;2023-08-21T11:40:58;42.30;68.50
45619;DHT22;31343;47.520;19.144;2023-08-21T11:43:41;42.20;67.10
45619;DHT22;31343;47.520;19.144;2023-08-21T11:46:09;42.10;66.60
45619;DHT22;31343;47.520;19.144;2023-08-21T11:48:38;42.10;65.30
45619;DHT22;31343;47.520;19.144;2023-08-21T11:51:04;42.40;66.40
45619;DHT22;31343;47.520;19.144;2023-08-21T11:53:35;41.90;64.80
45619;DHT22;31343;47.520;19.144;2023-08-21T11:56:01;41.90;65.50
45619;DHT22;31343;47.520;19.144;2023-08-21T11:58:27;41.50;65.80
45619;DHT22;31343;47.520;19.144;2023-08-21T12:01:04;41.40;65.20
45619;DHT22;31343;47.520;19.144;2023-08-21T12:03:30;40.50;66.60
45619;DHT22;31343;47.520;19.144;2023-08-21T12:06:07;40.30;68.00
45619;DHT22;31343;47.520;19.144;2023-08-21T12:08:32;41.20;68.80
45619;DHT22;31343;47.520;19.144;2023-08-21T12:10:58;41.30;69.10
45619;DHT22;31343;47.520;19.144;2023-08-21T12:13:24;42.10;67.80
45619;DHT22;31343;47.520;19.144;2023-08-21T12:15:50;42.00;66.70
45619;DHT22;31343;47.520;19.144;2023-08-21T12:18:15;42.50;67.60
45619;DHT22;31343;47.520;19.144;2023-08-21T12:20:41;42.70;66.50
45619;DHT22;31343;47.520;19.144;2023-08-21T12:23:07;41.90;64.10
45619;DHT22;31343;47.520;19.144;2023-08-21T12:25:33;41.40;65.50
45619;DHT22;31343;47.520;19.144;2023-08-21T12:27:58;41.00;67.10
45619;DHT22;31343;47.520;19.144;2023-08-21T12:30:25;41.10;66.90
45619;DHT22;31343;47.520;19.144;2023-08-21T12:32:51;41.30;66.00
45619;DHT22;31343;47.520;19.144;2023-08-21T12:35:17;42.00;64.90
45619;DHT22;31343;47.520;19.144;2023-08-21T12:37:43;41.60;66.90
45619;DHT22;31343;47.520;19.144;2023-08-21T12:40:08;41.70;66.30
45619;DHT22;31343;47.520;19.144;2023-08-21T12:42:34;41.70;64.40
45619;DHT22;31343;47.520;19.144;2023-08-21T12:45:00;41.70;64.70
45619;DHT22;31343;47.520;19.144;2023-08-21T12:47:26;42.20;65.10
45619;DHT22;31343;47.520;19.144;2023-08-21T12:49:51;42.20;63.30
45619;DHT22;31343;47.520;19.144;2023-08-21T12:52:17;42.30;63.20
45619;DHT22;31343;47.520;19.144;2023-08-21T12:54:43;42.50;61.50
45619;DHT22;31343;47.520;19.144;2023-08-21T12:57:09;42.80;60.70
45619;DHT22;31343;47.520;19.144;2023-08-21T12:59:37;42.00;61.50
45619;DHT22;31343;47.520;19.144;2023-08-21T13:02:03;41.90;61.20
45619;DHT22;31343;47.520;19.144;2023-08-21T13:04:29;41.60;62.10
45619;DHT22;31343;47.520;19.144;2023-08-21T13:06:55;41.40;62.40
45619;DHT22;31343;47.520;19.144;2023-08-21T13:09:21;40.80;62.70
45619;DHT22;31343;47.520;19.144;2023-08-21T13:11:50;40.60;62.30
45619;DHT22;31343;47.520;19.144;2023-08-21T13:14:16;40.10;62.70
45619;DHT22;31343;47.520;19.144;2023-08-21T13:16:42;39.60;63.70
45619;DHT22;31343;47.520;19.144;2023-08-21T13:19:07;39.40;62.20
45619;DHT22;31343;47.520;19.144;2023-08-21T13:21:33;38.90;63.00
45619;DHT22;31343;47.520;19.144;2023-08-21T13:23:59;38.70;63.50
45619;DHT22;31343;47.520;19.144;2023-08-21T13:26:24;38.40;65.00
45619;DHT22;31343;47.520;19.144;2023-08-21T13:28:51;38.30;65.40
45619;DHT22;31343;47.520;19.144;2023-08-21T13:31:17;38.20;65.50
45619;DHT22;31343;47.520;19.144;2023-08-21T13:33:50;37.80;63.80
45619;DHT22;31343;47.520;19.144;2023-08-21T13:36:16;37.70;66.40
45619;DHT22;31343;47.520;19.144;2023-08-21T13:38:43;37.70;67.60
45619;DHT22;31343;47.520;19.144;2023-08-21T13:41:09;37.60;66.30
45619;DHT22;31343;47.520;19.144;2023-08-21T13:43:35;37.50;66.40
45619;DHT22;31343;47.520;19.144;2023-08-21T13:46:01;37.30;66.10
45619;DHT22;31343;47.520;19.144;2023-08-21T13:48:32;37.10;66.30
45619;DHT22;31343;47.520;19.144;2023-08-21T13:50:58;36.80;67.20
45619;DHT22;31343;47.520;19.144;2023-08-21T13:53:24;36.70;67.40
45619;DHT22;31343;47.520;19.144;2023-08-21T13:55:50;36.70;65.90
45619;DHT22;31343;47.520;19.144;2023-08-21T13:58:16;36.50;65.90
45619;DHT22;31343;47.520;19.144;2023-08-21T14:00:42;36.50;66.90
45619;DHT22;31343;47.520;19.144;2023-08-21T14:03:08;36.40;67.90
45619;DHT22;31343;47.520;19.144;2023-08-21T14:05:33;36.20;65.60
45619;DHT22;31343;47.520;19.144;2023-08-21T14:08:00;36.10;67.20
45619;DHT22;31343;47.520;19.144;2023-08-21T14:10:26;36.00;66.20
45619;DHT22;31343;47.520;19.144;2023-08-21T14:12:52;35.90;65.80
45619;DHT22;31343;47.520;19.144;2023-08-21T14:15:18;35.90;66.90
45619;DHT22;31343;47.520;19.144;2023-08-21T14:17:44;35.90;67.00
45619;DHT22;31343;47.520;19.144;2023-08-21T14:20:10;35.70;68.20
45619;DHT22;31343;47.520;19.144;2023-08-21T14:22:37;35.70;68.50
45619;DHT22;31343;47.520;19.144;2023-08-21T14:25:04;35.50;69.70
45619;DHT22;31343;47.520;19.144;2023-08-21T14:27:33;35.50;69.30
45619;DHT22;31343;47.520;19.144;2023-08-21T14:29:59;35.50;69.50
45619;DHT22;31343;47.520;19.144;2023-08-21T14:32:25;35.50;69.30
45619;DHT22;31343;47.520;19.144;2023-08-21T14:34:51;35.30;69.40
45619;DHT22;31343;47.520;19.144;2023-08-21T14:37:20;35.20;68.70
45619;DHT22;31343;47.520;19.144;2023-08-21T14:39:46;35.10;68.30
45619;DHT22;31343;47.520;19.144;2023-08-21T14:42:13;35.10;68.10
45619;DHT22;31343;47.520;19.144;2023-08-21T14:44:39;35.10;67.10
45619;DHT22;31343;47.520;19.144;2023-08-21T14:47:04;34.90;64.90
45619;DHT22;31343;47.520;19.144;2023-08-21T14:49:30;35.00;68.00
45619;DHT22;31343;47.520;19.144;2023-08-21T14:51:57;34.90;66.80
45619;DHT22;31343;47.520;19.144;2023-08-21T14:54:23;34.80;67.60
45619;DHT22;31343;47.520;19.144;2023-08-21T14:56:50;34.70;66.70
45619;DHT22;31343;47.520;19.144;2023-08-21T14:59:16;34.70;67.40
45619;DHT22;31343;47.520;19.144;2023-08-21T15:01:44;34.40;67.20
45619;DHT22;31343;47.520;19.144;2023-08-21T15:04:10;34.40;67.40
45619;DHT22;31343;47.520;19.144;2023-08-21T15:06:38;34.40;68.50
45619;DHT22;31343;47.520;19.144;2023-08-21T15:09:06;34.50;69.60
45619;DHT22;31343;47.520;19.144;2023-08-21T15:11:32;34.40;68.60
45619;DHT22;31343;47.520;19.144;2023-08-21T15:14:01;34.40;69.40
45619;DHT22;31343;47.520;19.144;2023-08-21T15:16:28;34.50;69.00
45619;DHT22;31343;47.520;19.144;2023-08-21T15:18:53;34.50;70.30
45619;DHT22;31343;47.520;19.144;2023-08-21T15:21:19;34.50;70.10
45619;DHT22;31343;47.520;19.144;2023-08-21T15:23:46;34.50;69.70